Ames, NE (68621)

11:56 PM CDT on September 17, 2014 (GMT -0500)
MesoWest TROXL1 NE US UPR | Change Station
CLOSE
Current Station
Personal Weather Station
Location: Ames, NE
Elevation: 1223 ft
Nearby Weather Stations

Elev 1223 ft 41.45 °N, 96.60 °W | Updated 56 minutes ago

Clear
Clear
65.0 °F
Feels Like 65.0 °F
N
-
Wind Variable Wind from North

Today
High -- | Low -- °F
--% Chance of Precip.
Yesterday
High -- | Low -- °F
Precip. -- in
7:08 AM 7:32 PM
Waning Crescent, 30% visible
Pressure 29.97 in
Visibility 10.0 miles
Clouds Clear
Dew Point Not available.
Humidity Not available.
Rainfall -999.00 in
Snow Depth Not available.
UV 0 out of 12
Pollen 5.80 out of 12
Air Quality Not available.
Flu Activity Not available.
METAR KFET 180435Z AUTO 00000KT 10SM CLR 18/16 A2997 RMK AO2 T01820164

More Conditions Fewer Conditions

Pressure 29.97 in
Visibility 10.0 miles
Clouds Clear
Dew Point Not available.
Humidity Not available.
Rainfall -999.00 in
Snow Depth Not available.
UV 0 out of 12
Pollen 5.80 out of 12
Air Quality Not available.
Flu Activity Not available.
METAR KFET 180435Z AUTO 00000KT 10SM CLR 18/16 A2997 RMK AO2 T01820164

More Conditions Fewer Conditions

10-Day Weather Forecast

Almanac

Astronomy

Sep. 17, 2014 Rise Set
Actual Time 7:08 AM CDT 7:32 PM CDT
Civil Twilight 6:41 AM CDT 8:00 PM CDT
Nautical Twilight 6:08 AM CDT 8:32 PM CDT
Astronomical Twilight 5:35 AM CDT 9:05 PM CDT
Moon 1:06 AM CDT (9/17) 3:45 PM CDT (9/17)
Length of Visible Light 13h 18m
Length of Day
12h 23m
Tomorrow will be 2m 45s shorter.
Waning Crescent, 30% of the Moon is Illuminated
Sep 18
Waning Crescent
Sep 24
New
Oct 1
First Quarter
Oct 8
Full
Oct 15
Last Quarter

Yesterday's Extremes

State Highs State Lows

Community

WunderPhotos

Upload Photos

1,754,295 photos uploaded!

Nearby

Snow Depth

Station Depth Elevation
No new snow has been reported.

Earthquake Activity

City Distance Mag. Time & Date
No recent earthquake activity has been reported nearby.
Minimum magnitude displayed is 2.5.

Coastal Water Temperatures

Place Temperature
No Stations Reporting

Nearby Weather Stations